首页
METAR-TAF:

METAR-TAF

机场 :

施韦比施哈尔, 德国

纬度: 49-07-06N, 经度: 9-47-02E, 海拔: 398米

当前天气观测

该预报发布于33分钟前的20:50 UTC
风速5节,风向西南,在西转西南之间变化
温度 13°C
湿度 88%
气压 1006 hPa
能见度10公里或以上

METAR: EDTY 062050Z AUTO 22005KT 180V250 9999 // OVC073/// 13/11 Q1006

时间: 23:23 (21:23 UTC)

预报

该预报发布于7小时和23分钟前的14:00 UTC
预报有效从06日的 15点(UTC)到 06日的 24点(UTC)
风速10节,风向西
能见度10公里或以上
少量云层高于2000英尺
多云层高于4500英尺
成为
从 06日的 18点(UTC)到 06日的 20点(UTC)
风速3节,风向南转西南

TAF: EDTY 061400Z 0615/0624 26010KT 9999 FEW020 BKN045 BECMG 0618/0620 21003KT

超过4000个机场的气象观测和天气预报(METAR&TAF报告)。

可查询的气象台以黄色和红色小点在地图上表示。

将鼠标移到小点上方,可查看气象台名称。

然后点击查看天气观测和预报。

如需切换地图:点击带黑十字的绿色按钮放大地图;点击带横线的绿色按钮缩小地图;或者点击绿色箭头查看邻近地区的地图。


METAR-TAF: